Terminal Aerodrome Forecast
Issued by NWS

Home | Current Version | Previous Version | Text Only | Print | Product List | Glossary On
Versions: 1 2 3 4 5 6 7 8 9 10 11 12 13 14 15 16
000
FTUS44 KJAN 210500
TAFGTR
TAF
KGTR 210533Z 2106/2206 VRB04KT P6SM FEW250
     FM211400 17007KT P6SM SCT050 SCT150
     FM211800 19008KT P6SM VCSH SCT050 OVC120
     FM220000 18005KT P6SM FEW050 SCT120=

USA.gov is the U.S. government's official web portal to all federal, state and local government web resources and services.